Flight Track Log - Related Links

Times and Time Zones

All times are in EDT time to prevent confusion due to time zone crossing. See the N523JM flight status page for this flight to view local times or setup timezone preferences in your user account.

Time Position Orientation Groundspeed Altitude Reporting Facility
EDT Latitude Longitude Course Direction KTS MPH feet Rate Location/Type
Fri 09:11:03 AM 40.0756 -83.0886 268° West 162 186 1,300  Level Indianapolis Center
Fri 09:11:51 AM 40.0736 -83.1511 268° West 217 250 3,000 2,526 Climbing Indianapolis Center
Fri 09:13:16 AM 40.0661 -83.2611 265° West 244 281 6,900 2,776 Climbing Indianapolis Center
Fri 09:14:18 AM 40.0600 -83.3581 265° West 265 305 9,800 2,806 Climbing Indianapolis Center
Fri 09:15:20 AM 40.0611 -83.4786 271° West 286 329 12,700 2,516 Climbing Indianapolis Center
Fri 09:16:22 AM 40.0672 -83.5914 274° West 312 359 15,000 2,081 Climbing Indianapolis Center
Fri 09:17:24 AM 40.0731 -83.7156 274° West 337 388 17,000 1,887 Climbing Indianapolis Center
Fri 09:18:26 AM 40.0767 -83.8428 272° West 347 399 18,900 1,839 Climbing Indianapolis Center
Fri 09:19:28 AM 40.0825 -83.9731 273° West 355 409 20,800 1,065 Climbing Indianapolis Center
Fri 09:20:30 AM 40.0881 -84.1119 273° West 376 433 21,100 871 Climbing Indianapolis Center
Fri 09:21:32 AM 40.0939 -84.2872 273° West 408 470 22,600 1,452 Climbing Indianapolis Center
Fri 09:22:34 AM 40.0997 -84.4350 273° West 405 466 24,100 1,463 Climbing Indianapolis Center
Fri 09:23:35 AM 40.1031 -84.5800 272° West 401 461 25,600 1,415 Climbing Indianapolis Center
Fri 09:24:37 AM 40.1075 -84.7264 272° West 400 460 27,000 1,403 Climbing Indianapolis Center
Fri 09:25:39 AM 40.1356 -84.8628 285° West 391 450 28,500 1,500 Climbing Indianapolis Center
Fri 09:26:41 AM 40.1847 -84.9997 295° West 397 457 30,100 1,355 Climbing Indianapolis Center
Fri 09:27:43 AM 40.2286 -85.1264 294° West 389 448 31,300 1,016 Climbing Indianapolis Center
Fri 09:28:45 AM 40.2303 -85.2689 271° West 391 450 32,200 919 Climbing Indianapolis Center
Fri 09:29:47 AM 40.2322 -85.4103 271° West 391 450 33,200 1,016 Climbing Indianapolis Center
Fri 09:30:49 AM 40.2361 -85.5814 272° West 394 453 34,300 1,016 Climbing Indianapolis Center
Fri 09:31:51 AM 40.2392 -85.7231 272° West 393 452 35,300 823 Climbing Indianapolis Center
Fri 09:32:53 AM 40.2417 -85.8611 271° West 385 443 36,000 339 Climbing Indianapolis Center
Fri 09:33:55 AM 40.2444 -86.0014 272° West 389 448 36,000  Level Indianapolis Center
Fri 09:34:57 AM 40.2467 -86.1442 271° West 395 455 36,000  Level Indianapolis Center
Fri 09:35:59 AM 40.2489 -86.3153 271° West 397 457 36,000  Level Indianapolis Center
Fri 09:37:01 AM 40.2503 -86.4581 271° West 399 459 36,000  Level Indianapolis Center
Fri 09:38:03 AM 40.2525 -86.5997 271° West 395 455 36,000  Level Indianapolis Center
Fri 09:39:05 AM 40.2539 -86.7428 271° West 396 456 36,000  Level Indianapolis Center
Fri 09:40:07 AM 40.2550 -86.8856 271° West 395 455 36,000  Level Indianapolis Center
Fri 09:41:09 AM 40.2556 -87.0558 270° West 393 452 36,000  Level Indianapolis Center
Fri 09:42:11 AM 40.2564 -87.1983 270° West 394 453 36,000  Level Indianapolis Center
Fri 09:43:13 AM 40.2567 -87.3417 270° West 395 455 36,000 290 Level Indianapolis Center
Fri 09:44:15 AM 40.2578 -87.4822 271° West 391 450 36,600 629 Climbing Indianapolis Center
Fri 09:45:17 AM 40.2586 -87.6194 271° West 380 437 37,300 677 Climbing Indianapolis Center
Fri 09:46:19 AM 40.2581 -87.7778 270° West 368 423 38,000 284 Climbing Indianapolis Center
Fri 09:47:45 AM 40.2597 -87.9458 271° West 367 422 38,000  Level Chicago Center
Fri 09:48:47 AM 40.2592 -88.1089 270° West 375 432 38,000  Level Chicago Center
Fri 09:49:49 AM 40.2589 -88.2461 270° West 379 436 38,000  Level Chicago Center
Fri 09:50:51 AM 40.2592 -88.3836 270° West 378 435 38,000  Level Chicago Center
Fri 09:51:53 AM 40.2583 -88.5164 270° West 378 435 38,000  Level Chicago Center
Fri 09:52:55 AM 40.2572 -88.6531 269° West 375 432 38,000  Level Chicago Center
Fri 09:53:56 AM 40.2553 -88.8139 269° West 370 426 38,000  Level Chicago Center
Fri 09:54:58 AM 40.2539 -88.9494 269° West 371 427 38,000  Level Chicago Center
Fri 09:56:00 AM 40.2522 -89.0831 269° West 368 423 38,000  Level Chicago Center
Fri 09:57:02 AM 40.2508 -89.2169 269° West 367 422 38,000  Level Chicago Center
Fri 09:58:04 AM 40.2486 -89.3508 269° West 368 423 38,000 194 Level Chicago Center
Fri 09:59:06 AM 40.2475 -89.4825 269° West 363 418 38,400 387 Climbing Chicago Center
Fri 09:59:37 AM 40.2461 -89.5636 269° West 367 422 38,600 323 Climbing Kansas City Center
Fri 10:00:39 AM 40.2444 -89.6972 269° West 367 422 38,900 323 Climbing Kansas City Center
Fri 10:01:10 AM 40.2431 -89.7503 268° West 366 421 39,100 387 Climbing Chicago Center
Fri 10:02:12 AM 40.2408 -89.9122 269° West 369 425 39,500 326 Climbing Chicago Center
Fri 10:02:42 AM 40.2394 -89.9672 268° West 370 426 39,600 326 Climbing Kansas City Center
Fri 10:03:44 AM 40.2358 -90.1033 268° West 371 427 40,000 194 Climbing Kansas City Center
Fri 10:04:46 AM 40.2342 -90.2386 269° West 371 427 40,000  Level Kansas City Center
Fri 10:05:47 AM 40.2322 -90.3775 269° West 375 432 40,000  Level Kansas City Center
Fri 10:06:49 AM 40.2292 -90.5475 269° West 385 443 40,000  Level Kansas City Center
Fri 10:07:51 AM 40.2242 -90.6889 267° West 389 448 40,000  Level Kansas City Center
Fri 10:08:24 AM 40.2239 -90.7458 270° West 391 450 40,000  Level Chicago Center
Fri 10:09:26 AM 40.2192 -90.9172 268° West 392 451 40,000  Level Chicago Center
Fri 10:10:28 AM 40.2156 -91.0600 268° West 392 451 40,000  Level Chicago Center
Fri 10:11:30 AM 40.2122 -91.2028 268° West 392 451 40,000  Level Chicago Center
Fri 10:12:59 AM 40.2047 -91.4169 267° West 393 452 40,000  Level Kansas City Center
Fri 10:14:01 AM 40.2000 -91.5581 268° West 393 452 40,000  Level Kansas City Center
Fri 10:15:03 AM 40.1953 -91.6978 268° West 389 448 40,000  Level Kansas City Center
Fri 10:16:05 AM 40.1911 -91.8408 268° West 394 453 40,000  Level Kansas City Center
Fri 10:17:07 AM 40.1861 -91.9814 267° West 392 451 40,000  Level Kansas City Center
Fri 10:18:08 AM 40.1800 -92.1517 267° West 393 452 40,000  Level Kansas City Center
Fri 10:19:10 AM 40.1753 -92.2950 268° West 395 455 40,000  Level Kansas City Center
Fri 10:20:12 AM 40.1681 -92.4406 266° West 390 449 40,000  Level Kansas City Center
Fri 10:21:14 AM 40.1631 -92.5800 267° West 398 458 40,000  Level Kansas City Center
Fri 10:22:15 AM 40.1581 -92.7397 268° West 395 455 40,000  Level Kansas City Center
Fri 10:23:17 AM 40.1514 -92.8786 266° West 398 458 40,000  Level Kansas City Center
Fri 10:24:19 AM 40.1447 -93.0403 267° West 399 459 40,000  Level Kansas City Center
Fri 10:25:21 AM 40.1381 -93.1619 266° West 399 459 40,000  Level Kansas City Center
Fri 10:26:23 AM 40.1306 -93.3364 267° West 403 464 40,000  Level Kansas City Center
Fri 10:27:25 AM 40.1239 -93.4817 267° West 404 465 40,000  Level Kansas City Center
Fri 10:28:26 AM 40.1181 -93.6275 267° West 405 466 40,000  Level Kansas City Center
Fri 10:29:28 AM 40.1108 -93.7733 266° West 405 466 40,000  Level Kansas City Center
Fri 10:30:30 AM 40.1019 -93.9186 265° West 406 467 40,000  Level Kansas City Center
Fri 10:31:32 AM 40.0939 -94.0892 267° West 405 466 40,000  Level Kansas City Center
Fri 10:32:34 AM 40.0850 -94.2286 265° West 404 465 40,000  Level Kansas City Center
Fri 10:33:35 AM 40.0758 -94.3950 266° West 411 473 40,000  Level Kansas City Center
Fri 10:34:37 AM 40.0683 -94.5364 266° West 410 472 40,000  Level Kansas City Center
Fri 10:35:39 AM 40.0592 -94.7019 266° West 411 473 40,000  Level Kansas City Center
Fri 10:36:41 AM 40.0506 -94.8439 266° West 411 473 40,000  Level Kansas City Center
Fri 10:37:43 AM 40.0408 -95.0111 266° West 414 476 40,000  Level Kansas City Center
Fri 10:38:45 AM 40.0322 -95.1533 266° West 413 475 40,000  Level Kansas City Center
Fri 10:39:47 AM 40.0225 -95.2956 265° West 413 475 40,000  Level Kansas City Center
Fri 10:40:49 AM 40.0125 -95.4614 266° West 412 474 40,000  Level Kansas City Center
Fri 10:41:50 AM 40.0033 -95.6036 265° West 412 474 40,000  Level Kansas City Center
Fri 10:42:52 AM 39.9919 -95.7694 265° West 412 474 40,000  Level Kansas City Center
Fri 10:43:54 AM 39.9808 -95.9131 264° West 415 478 40,000  Level Kansas City Center
Fri 10:44:56 AM 39.9689 -96.0783 265° West 411 473 40,000  Level Kansas City Center
Fri 10:45:58 AM 39.9581 -96.2128 264° West 412 474 40,000  Level Kansas City Center
Fri 10:47:00 AM 39.9453 -96.3922 265° West 414 476 40,000  Level Kansas City Center
Fri 10:48:02 AM 39.9344 -96.5422 265° West 415 478 40,000  Level Kansas City Center
Fri 10:49:12 AM 39.9228 -96.7086 265° West 416 479 40,000  Level Minneapolis Center
Fri 10:50:14 AM 39.9106 -96.8597 264° West 418 481 40,000  Level Minneapolis Center
Fri 10:51:17 AM 39.8992 -97.0100 264° West 417 480 40,000  Level Minneapolis Center
Fri 10:52:19 AM 39.8867 -97.1617 264° West 420 483 40,000  Level Minneapolis Center
Fri 10:53:11 AM 39.8742 -97.2975 263° West 423 487 40,000  Level Kansas City Center
Fri 10:54:13 AM 39.8606 -97.4792 264° West 422 486 40,000  Level Kansas City Center
Fri 10:55:14 AM 39.8478 -97.6306 264° West 420 483 40,000  Level Kansas City Center
Fri 10:56:16 AM 39.8350 -97.7814 264° West 421 484 40,000  Level Kansas City Center
Fri 10:57:18 AM 39.8222 -97.9256 263° West 422 486 40,000  Level Kansas City Center
Fri 10:58:20 AM 39.8089 -98.0947 264° West 422 486 40,000  Level Kansas City Center
Fri 10:59:10 AM 39.7983 -98.2053 263° West 419 482 40,000  Level Denver Center
Fri 11:00:24 AM 39.7842 -98.3572 263° West 421 484 40,000  Level Denver Center
Fri 11:01:27 AM 39.7681 -98.5389 263° West 421 484 40,000  Level Denver Center
Fri 11:02:29 AM 39.7508 -98.7194 263° West 419 482 40,000  Level Denver Center
Fri 11:03:31 AM 39.7369 -98.8703 263° West 420 483 40,000  Level Denver Center
Fri 11:04:33 AM 39.7228 -99.0208 263° West 421 484 40,000  Level Denver Center
Fri 11:05:35 AM 39.7061 -99.1775 262° West 419 482 40,000  Level Denver Center
Fri 11:06:37 AM 39.6928 -99.3211 263° West 420 483 40,000  Level Denver Center
Fri 11:07:39 AM 39.6758 -99.4894 263° West 421 484 40,000  Level Denver Center
Fri 11:08:41 AM 39.6611 -99.6333 262° West 420 483 40,000  Level Denver Center
Fri 11:09:43 AM 39.6439 -99.8019 262° West 420 483 40,000  Level Denver Center
Fri 11:10:45 AM 39.6289 -99.9450 262° West 420 483 40,000  Level Denver Center
Fri 11:11:47 AM 39.6119 -100.1119 263° West 418 481 40,000  Level Denver Center
Fri 11:12:49 AM 39.5961 -100.2539 262° West 416 479 40,000  Level Denver Center
Fri 11:13:51 AM 39.5789 -100.4183 262° West 413 475 40,000  Level Denver Center
Fri 11:14:53 AM 39.5625 -100.5614 262° West 418 481 40,000  Level Denver Center
Fri 11:15:55 AM 39.5433 -100.7286 262° West 419 482 40,000  Level Denver Center
Fri 11:16:57 AM 39.5264 -100.8692 261° West 415 478 40,000  Level Denver Center
Fri 11:17:59 AM 39.5097 -101.0106 261° West 415 478 40,000  Level Denver Center
Fri 11:19:13 AM 39.4908 -101.1756 262° West 415 478 40,000  Level Denver Center
Fri 11:20:16 AM 39.4683 -101.3636 261° West 413 475 40,000  Level Denver Center
Fri 11:21:18 AM 39.4522 -101.5050 262° West 414 476 40,000  Level Denver Center
Fri 11:22:32 AM 39.4319 -101.6700 261° West 416 479 40,000  Level Denver Center
Fri 11:23:35 AM 39.4131 -101.8353 262° West 417 480 40,000  Level Denver Center
Fri 11:24:37 AM 39.3925 -101.9989 261° West 416 479 40,000  Level Denver Center
Fri 11:25:39 AM 39.3744 -102.1392 261° West 415 478 40,000  Level Denver Center
Fri 11:26:41 AM 39.3536 -102.3033 261° West 414 476 40,000  Level Denver Center
Fri 11:27:43 AM 39.3353 -102.4547 261° West 415 478 40,000  Level Denver Center
Fri 11:28:45 AM 39.3178 -102.5956 261° West 415 478 40,000  Level Denver Center
Fri 11:29:47 AM 39.2975 -102.7467 260° West 413 475 40,000  Level Denver Center
Fri 11:30:49 AM 39.2786 -102.8936 261° West 414 476 40,000  Level Denver Center
Fri 11:31:51 AM 39.2589 -103.0394 260° West 413 475 40,000  Level Denver Center
Fri 11:32:53 AM 39.2356 -103.2147 260° West 415 478 40,000  Level Denver Center
Fri 11:33:55 AM 39.2169 -103.3589 261° West 409 471 40,000  Level Denver Center
Fri 11:34:57 AM 39.1972 -103.5039 260° West 409 471 40,000  Level Denver Center
Fri 11:36:00 AM 39.1764 -103.6464 259° West 407 468 40,000  Level Denver Center
Fri 11:37:02 AM 39.1578 -103.7897 261° West 406 467 40,000 -48 Level Denver Center
Fri 11:38:04 AM 39.1367 -103.9308 259° West 403 464 39,900 -629 Descending Denver Center
Fri 11:39:06 AM 39.1128 -104.1042 260° West 408 470 38,700 -919 Descending Denver Center
Fri 11:40:08 AM 39.0928 -104.2497 260° West 411 473 38,000 -339 Descending Denver Center
Fri 11:41:10 AM 39.0719 -104.3928 259° West 407 468 38,000 -485 Level Denver Center
Fri 11:42:24 AM 39.0508 -104.5378 259° West 411 473 36,900 -1,191 Descending Denver Center
Fri 11:43:26 AM 39.0250 -104.7139 259° West 414 476 35,300 -1,306 Descending Denver Center
Fri 11:44:28 AM 39.0039 -104.8581 259° West 408 470 34,200 -629 Descending Denver Center
Fri 11:45:30 AM 38.9814 -105.0017 259° West 407 468 34,000 -96 Descending Denver Center
Fri 11:46:33 AM 38.9564 -105.1700 259° West 401 461 34,000  Level Denver Center
Fri 11:47:35 AM 38.9356 -105.3111 259° West 401 461 34,000  Level Denver Center
Fri 11:48:37 AM 38.9136 -105.4519 259° West 401 461 34,000 -339 Level Denver Center
Fri 11:49:39 AM 38.8767 -105.5914 251° West 411 473 33,300 -1,016 Descending Denver Center
Fri 11:50:41 AM 38.8322 -105.7336 248° West 428 493 31,900 -1,355 Descending Denver Center
Fri 11:51:43 AM 38.7903 -105.8789 250° West 436 502 30,500 -1,500 Descending Denver Center
Fri 11:52:45 AM 38.7378 -106.0522 249° West 435 501 28,800 -1,452 Descending Denver Center
Fri 11:53:47 AM 38.7031 -106.1739 250° West 429 494 27,500 -1,258 Descending Denver Center
Fri 11:54:49 AM 38.6617 -106.3208 250° West 435 501 26,200 -1,500 Descending Denver Center
Fri 11:55:51 AM 38.6439 -106.5017 263° West 423 487 24,400 -1,645 Descending Denver Center
Fri 11:56:53 AM 38.6303 -106.6556 264° West 432 497 22,800 -1,694 Descending Denver Center
Fri 11:57:55 AM 38.6164 -106.8067 263° West 428 493 20,900 -1,839 Descending Denver Center
Fri 11:58:57 AM 38.6014 -106.9544 263° West 422 486 19,000 -1,694 Descending Denver Center
Fri 11:59:59 AM 38.5875 -107.0967 263° West 408 470 17,400 -960 Descending Denver Center
Fri 12:01:02 PM 38.5675 -107.2469 260° West 388 447 17,000 -576 Descending Denver Center
Fri 12:02:04 PM 38.5586 -107.3611 264° West 356 410 16,200 -774 Descending Denver Center
Fri 12:04:00 PM 38.5505 -107.6367 257° West  Level FlightAware Approximate
Fri 12:11:00 PM 38.5000 -107.8833 254° West  Level FlightAware Approximate
Fri 12:12:00 PM 38.5098 -107.8942 254° West  Level Estimated
Fri 12:13:00 PM 38.5098 -107.8942 254° West  Level Estimated
Fri 12:14:00 PM 38.5098 -107.8942 254° West  Level Estimated
Fri 12:15:00 PM 38.5098 -107.8942 254° West  Level Estimated
Fri 12:16:00 PM 38.5098 -107.8942 254° West  Level Estimated
Fri 12:17:00 PM 38.5098 -107.8942 254° West  Level Estimated
Fri 12:18:00 PM 38.5098 -107.8942 254° West  Level Estimated
Fri 12:19:00 PM 38.5098 -107.8942 254° West  Level Estimated
Fri 12:20:00 PM 38.5098 -107.8942 254° West  Level Estimated
Fri 12:21:00 PM 38.5098 -107.8942 254° West  Level Estimated
Fri 12:22:00 PM 38.5098 -107.8942 254° West  Level Estimated
Fri 12:23:00 PM 38.5098 -107.8942 254° West  Level Estimated

Login

Don't have an account? Register now (free) for customized features, flight alerts, and more!